EGKK

London Gatwick Airport

London, United Kingdom
METAR EGKK 240320Z 20003KT CAVOK 04/04 Q1034
Observed Flight Rules
Sep-24 @ 03:20 UTC (27 minutes ago) Visual Flight Rules
Wind Visibility Clouds
200° at 3 knots 10,000+ meters
  • Clear skies
Temperatures Readings
Current 4°C / 39°F
Dewpoint 4°C / 39°F
Humidity 100%
Altimeter 30.53" Hg
Pressure 1034 hPa
Elevation 62
METAR EGKK 240320Z 20003KT CAVOK 04/04 Q1034
Observed Flight Rules
Sep-24 @ 03:20 UTC
(27 minutes ago)
VFR
Wind Visibility
200° at 3 knots 10,000+ meters
Clouds
  • Clear skies
Temperature Dewpoint
4°C / 39°F 4°C / 39°F
Humidity Altimeter Pressure
100% 30.53" Hg 1034 hPa